メインページ
METAR-TAF:

METAR-TAF

空港 :

アルマトイ, カザフスタン

アルマトイ国際空港

緯度: 43-14N, 経度: 076-56E, 海抜: 847m

現時点の気象観測

当レポートは32分前の20:30(UTC)に作成
の風 4kt
気温 7°C
湿度 70%
気圧 1011 hPa
視程: 3400m
高度10000ftの雲は散在している
高度20000ftの千切れ雲あり
靄, 煙

METAR: UAAA 292030Z 17002MPS 3400 BR FU SCT100 BKN200 07/02 Q1011 R88/65D NOSIG

時間: 03:02 (21:02 UTC)

予報

当レポートは4時間2分前の17:00(UTC)に作成
予報は29日の 18時(UTC)から 30日の 18時(UTC)まで有効
南/南東の風 10kt
視程: 3000m
高度3000ftの千切れ雲あり, 積乱雲.
高度10000ftの千切れ雲あり
靄, 煙
29日の 18時(UTC)から 30日の 03時(UTC)まで一時的に
視程: 1000m
30日の 04時(UTC)から 30日の 05時(UTC)まで徐々に
西の風 12kt
高度2000ftの千切れ雲あり, 積乱雲.
高度10000ftの曇り
30日の 06時(UTC)から 30日の 18時(UTC)まで一時的に
変向風 31kt
視程: 1500m
高度1000ftの千切れ雲あり, 積乱雲.
高度10000ftの曇り
激しい雷雨, 雨, スコール

TAF: UAAA 291700Z 2918/3018 16005MPS 3000 BR FU BKN030CB BKN100 TX16/3008Z TN04/3001Z TEMPO 2918/3003 1000 BECMG 3004/3005 26006MPS BKN020CB OVC100 TEMPO 3006/3018 VRB16MPS 1500 TSRA SQ BKN010CB OVC100

4,000以上の空港の気象観測と天気予報(METAR報とTAF報)

利用可能な観測所は地図上に黄色い丸と赤い丸で示す。

丸の上にカーソルを重ねると観測所名を参照できる。

次にクリックすると気象観測と天気予報を参照できる。

マップの切り替え:黒色「×」印の緑ボタンをクリックして拡大、「-」印の緑ボタンをクリックして縮小、緑色の三角印をクリックして隣りの地図に切り替え


METAR-TAF: